sensor_id;sensor_type;location;lat;lon;timestamp;pressure;altitude;pressure_sealevel;temperature;humidity
79285;BME280;68734;50.452;11.636;2024-01-25T00:01:18;96182.22;;;4.77;71.42
79285;BME280;68734;50.452;11.636;2024-01-25T00:03:43;96156.91;;;4.73;71.42
79285;BME280;68734;50.452;11.636;2024-01-25T00:06:09;96172.56;;;4.76;71.81
79285;BME280;68734;50.452;11.636;2024-01-25T00:08:34;96174.63;;;4.74;71.58
79285;BME280;68734;50.452;11.636;2024-01-25T00:11:01;96158.56;;;4.74;71.56
79285;BME280;68734;50.452;11.636;2024-01-25T00:13:27;96174.63;;;4.74;71.62
79285;BME280;68734;50.452;11.636;2024-01-25T00:15:52;96180.38;;;4.71;71.50
79285;BME280;68734;50.452;11.636;2024-01-25T00:18:18;96179.97;;;4.74;71.59
79285;BME280;68734;50.452;11.636;2024-01-25T00:20:43;96191.69;;;4.73;71.75
79285;BME280;68734;50.452;11.636;2024-01-25T00:23:09;96190.06;;;4.72;71.80
79285;BME280;68734;50.452;11.636;2024-01-25T00:25:34;96196.25;;;4.66;71.68
79285;BME280;68734;50.452;11.636;2024-01-25T00:27:59;96193.13;;;4.69;71.80
79285;BME280;68734;50.452;11.636;2024-01-25T00:30:25;96195.19;;;4.67;72.11
79285;BME280;68734;50.452;11.636;2024-01-25T00:32:50;96190.88;;;4.66;71.35
79285;BME280;68734;50.452;11.636;2024-01-25T00:35:16;96195.19;;;4.67;71.25
79285;BME280;68734;50.452;11.636;2024-01-25T00:37:42;96187.19;;;4.60;72.19
79285;BME280;68734;50.452;11.636;2024-01-25T00:40:08;96187.38;;;4.58;71.41
79285;BME280;68734;50.452;11.636;2024-01-25T00:42:41;96191.91;;;4.65;71.31
79285;BME280;68734;50.452;11.636;2024-01-25T00:45:10;96203.03;;;4.68;71.41
79285;BME280;68734;50.452;11.636;2024-01-25T00:47:37;96200.53;;;4.67;71.41
79285;BME280;68734;50.452;11.636;2024-01-25T00:50:03;96196.41;;;4.71;71.50
79285;BME280;68734;50.452;11.636;2024-01-25T00:52:29;96188.00;;;4.74;71.20
79285;BME280;68734;50.452;11.636;2024-01-25T00:54:57;96182.44;;;4.69;71.71
79285;BME280;68734;50.452;11.636;2024-01-25T00:57:23;96180.19;;;4.66;72.52
79285;BME280;68734;50.452;11.636;2024-01-25T00:59:51;96176.09;;;4.63;72.10
79285;BME280;68734;50.452;11.636;2024-01-25T01:02:17;96174.63;;;4.60;72.47
79285;BME280;68734;50.452;11.636;2024-01-25T01:04:42;96176.69;;;4.58;72.72
79285;BME280;68734;50.452;11.636;2024-01-25T01:07:09;96173.00;;;4.59;72.34
79285;BME280;68734;50.452;11.636;2024-01-25T01:09:35;96177.13;;;4.55;72.95
79285;BME280;68734;50.452;11.636;2024-01-25T01:12:00;96183.47;;;4.54;73.36
79285;BME280;68734;50.452;11.636;2024-01-25T01:14:25;96183.28;;;4.56;72.93
79285;BME280;68734;50.452;11.636;2024-01-25T01:16:51;96193.97;;;4.56;73.37
79285;BME280;68734;50.452;11.636;2024-01-25T01:19:18;96187.59;;;4.57;73.39
79285;BME280;68734;50.452;11.636;2024-01-25T01:21:45;96186.16;;;4.54;73.43
79285;BME280;68734;50.452;11.636;2024-01-25T01:24:11;96185.34;;;4.54;73.35
79285;BME280;68734;50.452;11.636;2024-01-25T01:26:37;96180.41;;;4.57;73.37
79285;BME280;68734;50.452;11.636;2024-01-25T01:29:03;96185.34;;;4.67;73.39
79285;BME280;68734;50.452;11.636;2024-01-25T01:31:28;96182.88;;;4.66;73.72
79285;BME280;68734;50.452;11.636;2024-01-25T01:33:54;96184.91;;;4.64;73.69
79285;BME280;68734;50.452;11.636;2024-01-25T01:36:23;96176.28;;;4.62;74.13
79285;BME280;68734;50.452;11.636;2024-01-25T01:38:49;96173.00;;;4.59;74.04
79285;BME280;68734;50.452;11.636;2024-01-25T01:41:14;96175.03;;;4.64;73.93
79285;BME280;68734;50.452;11.636;2024-01-25T01:43:40;96172.16;;;4.66;73.45
79285;BME280;68734;50.452;11.636;2024-01-25T01:46:43;96169.47;;;4.59;74.05
79285;BME280;68734;50.452;11.636;2024-01-25T01:49:12;96176.91;;;4.50;74.39
79285;BME280;68734;50.452;11.636;2024-01-25T01:51:40;96167.03;;;4.44;74.33
79285;BME280;68734;50.452;11.636;2024-01-25T01:54:09;96164.34;;;4.44;73.81
79285;BME280;68734;50.452;11.636;2024-01-25T01:56:37;96171.16;;;4.40;74.20
79285;BME280;68734;50.452;11.636;2024-01-25T01:59:08;96161.88;;;4.43;73.26
79285;BME280;68734;50.452;11.636;2024-01-25T02:01:34;96163.53;;;4.37;74.33
79285;BME280;68734;50.452;11.636;2024-01-25T02:03:59;96165.56;;;4.35;73.61
79285;BME280;68734;50.452;11.636;2024-01-25T02:06:25;96162.69;;;4.36;72.97
79285;BME280;68734;50.452;11.636;2024-01-25T02:08:52;96170.75;;;4.43;72.62
79285;BME280;68734;50.452;11.636;2024-01-25T02:11:24;96161.91;;;4.49;72.05
79285;BME280;68734;50.452;11.636;2024-01-25T02:13:49;96170.09;;;4.54;71.16
79285;BME280;68734;50.452;11.636;2024-01-25T02:16:15;96175.88;;;4.51;71.80
79285;BME280;68734;50.452;11.636;2024-01-25T02:18:41;96169.31;;;4.47;72.05
79285;BME280;68734;50.452;11.636;2024-01-25T02:21:07;96160.44;;;4.53;71.18
79285;BME280;68734;50.452;11.636;2024-01-25T02:23:33;96169.69;;;4.57;71.09
79285;BME280;68734;50.452;11.636;2024-01-25T02:25:58;96166.81;;;4.52;71.19
79285;BME280;68734;50.452;11.636;2024-01-25T02:28:24;96180.00;;;4.47;70.96
79285;BME280;68734;50.452;11.636;2024-01-25T02:30:50;96167.66;;;4.46;70.50
79285;BME280;68734;50.452;11.636;2024-01-25T02:33:15;96175.06;;;4.44;70.65
79285;BME280;68734;50.452;11.636;2024-01-25T02:35:40;96173.00;;;4.39;70.70
79285;BME280;68734;50.452;11.636;2024-01-25T02:38:08;96179.56;;;4.37;71.08
79285;BME280;68734;50.452;11.636;2024-01-25T02:40:33;96180.81;;;4.28;71.38
79285;BME280;68734;50.452;11.636;2024-01-25T02:42:59;96176.47;;;4.27;70.90
79285;BME280;68734;50.452;11.636;2024-01-25T02:45:25;96185.75;;;4.37;69.61
79285;BME280;68734;50.452;11.636;2024-01-25T02:47:50;96180.19;;;4.32;70.09
79285;BME280;68734;50.452;11.636;2024-01-25T02:50:16;96174.22;;;4.30;70.26
79285;BME280;68734;50.452;11.636;2024-01-25T02:52:41;96164.97;;;4.19;69.95
79285;BME280;68734;50.452;11.636;2024-01-25T02:55:07;96171.16;;;4.20;69.87
79285;BME280;68734;50.452;11.636;2024-01-25T02:57:32;96169.28;;;4.14;69.96
79285;BME280;68734;50.452;11.636;2024-01-25T03:00:00;96177.31;;;4.07;70.75
79285;BME280;68734;50.452;11.636;2024-01-25T03:02:29;96180.59;;;4.09;70.80
79285;BME280;68734;50.452;11.636;2024-01-25T03:04:54;96173.22;;;4.11;69.67
79285;BME280;68734;50.452;11.636;2024-01-25T03:07:20;96186.16;;;4.14;69.74
79285;BME280;68734;50.452;11.636;2024-01-25T03:09:45;96190.25;;;4.10;70.55
79285;BME280;68734;50.452;11.636;2024-01-25T03:12:11;96191.31;;;4.09;70.24
79285;BME280;68734;50.452;11.636;2024-01-25T03:14:36;96180.38;;;4.04;69.70
79285;BME280;68734;50.452;11.636;2024-01-25T03:17:02;96193.97;;;4.09;70.11
79285;BME280;68734;50.452;11.636;2024-01-25T03:19:27;96198.09;;;4.05;70.10
79285;BME280;68734;50.452;11.636;2024-01-25T03:21:53;96197.28;;;4.11;70.13
79285;BME280;68734;50.452;11.636;2024-01-25T03:24:20;96204.66;;;4.09;69.85
79285;BME280;68734;50.452;11.636;2024-01-25T03:26:45;96193.97;;;4.09;69.66
79285;BME280;68734;50.452;11.636;2024-01-25T03:29:11;96197.25;;;3.98;70.27
79285;BME280;68734;50.452;11.636;2024-01-25T03:31:36;96192.72;;;3.92;70.36
79285;BME280;68734;50.452;11.636;2024-01-25T03:34:03;96191.84;;;3.85;71.31
79285;BME280;68734;50.452;11.636;2024-01-25T03:36:28;96196.56;;;3.76;71.37
79285;BME280;68734;50.452;11.636;2024-01-25T03:38:54;96213.59;;;3.68;72.21
79285;BME280;68734;50.452;11.636;2024-01-25T03:41:22;96211.91;;;3.54;72.69
79285;BME280;68734;50.452;11.636;2024-01-25T03:43:48;96208.88;;;3.57;72.85
79285;BME280;68734;50.452;11.636;2024-01-25T03:46:14;96205.38;;;3.63;72.56
79285;BME280;68734;50.452;11.636;2024-01-25T03:48:39;96219.38;;;3.65;72.24
79285;BME280;68734;50.452;11.636;2024-01-25T03:51:05;96226.13;;;3.61;72.42
79285;BME280;68734;50.452;11.636;2024-01-25T03:53:30;96234.97;;;3.68;72.12
79285;BME280;68734;50.452;11.636;2024-01-25T03:55:55;96230.88;;;3.72;71.22
79285;BME280;68734;50.452;11.636;2024-01-25T03:58:21;96238.28;;;3.70;71.99
79285;BME280;68734;50.452;11.636;2024-01-25T04:00:46;96231.06;;;3.64;72.17
79285;BME280;68734;50.452;11.636;2024-01-25T04:03:12;96228.81;;;3.61;72.00
79285;BME280;68734;50.452;11.636;2024-01-25T04:05:40;96235.59;;;3.70;71.91
79285;BME280;68734;50.452;11.636;2024-01-25T04:08:06;96232.53;;;3.73;71.91
79285;BME280;68734;50.452;11.636;2024-01-25T04:10:34;96237.88;;;3.73;72.28
79285;BME280;68734;50.452;11.636;2024-01-25T04:12:59;96231.31;;;3.76;72.39
79285;BME280;68734;50.452;11.636;2024-01-25T04:15:30;96236.66;;;3.76;72.17
79285;BME280;68734;50.452;11.636;2024-01-25T04:17:55;96228.44;;;3.77;72.20
79285;BME280;68734;50.452;11.636;2024-01-25T04:20:21;96246.53;;;3.89;71.72
79285;BME280;68734;50.452;11.636;2024-01-25T04:22:47;96244.91;;;3.88;71.67
79285;BME280;68734;50.452;11.636;2024-01-25T04:25:12;96242.25;;;3.88;71.95
79285;BME280;68734;50.452;11.636;2024-01-25T04:27:38;96239.38;;;3.89;71.63
79285;BME280;68734;50.452;11.636;2024-01-25T04:30:05;96247.78;;;3.93;71.80
79285;BME280;68734;50.452;11.636;2024-01-25T04:32:30;96250.69;;;3.98;71.32
79285;BME280;68734;50.452;11.636;2024-01-25T04:34:56;96256.66;;;4.00;70.67
79285;BME280;68734;50.452;11.636;2024-01-25T04:37:21;96259.38;;;4.13;69.99
79285;BME280;68734;50.452;11.636;2024-01-25T04:39:48;96252.59;;;4.17;69.47
79285;BME280;68734;50.452;11.636;2024-01-25T04:42:13;96254.03;;;4.13;69.88
79285;BME280;68734;50.452;11.636;2024-01-25T04:44:38;96261.25;;;4.19;69.25
79285;BME280;68734;50.452;11.636;2024-01-25T04:47:04;96271.50;;;4.23;69.07
79285;BME280;68734;50.452;11.636;2024-01-25T04:49:29;96280.56;;;4.22;69.74
79285;BME280;68734;50.452;11.636;2024-01-25T04:51:55;96277.06;;;4.14;70.00
79285;BME280;68734;50.452;11.636;2024-01-25T04:54:20;96265.34;;;4.15;70.29
79285;BME280;68734;50.452;11.636;2024-01-25T04:56:45;96272.50;;;4.08;70.76
79285;BME280;68734;50.452;11.636;2024-01-25T04:59:11;96271.28;;;4.04;71.35
79285;BME280;68734;50.452;11.636;2024-01-25T05:01:36;96253.00;;;4.14;70.10
79285;BME280;68734;50.452;11.636;2024-01-25T05:04:02;96252.38;;;4.12;69.98
79285;BME280;68734;50.452;11.636;2024-01-25T05:06:28;96241.47;;;4.07;71.22
79285;BME280;68734;50.452;11.636;2024-01-25T05:08:54;96255.47;;;4.09;70.80
79285;BME280;68734;50.452;11.636;2024-01-25T05:11:19;96245.78;;;4.08;70.71
79285;BME280;68734;50.452;11.636;2024-01-25T05:13:45;96261.22;;;4.13;69.63
79285;BME280;68734;50.452;11.636;2024-01-25T05:16:11;96260.19;;;4.14;69.51
79285;BME280;68734;50.452;11.636;2024-01-25T05:18:39;96270.69;;;4.15;69.46
79285;BME280;68734;50.452;11.636;2024-01-25T05:21:04;96287.34;;;4.17;69.51
79285;BME280;68734;50.452;11.636;2024-01-25T05:23:32;96282.19;;;4.09;69.90
79285;BME280;68734;50.452;11.636;2024-01-25T05:25:57;96283.63;;;4.05;70.01
79285;BME280;68734;50.452;11.636;2024-01-25T05:28:23;96294.72;;;4.02;70.40
79285;BME280;68734;50.452;11.636;2024-01-25T05:30:52;96291.66;;;4.05;70.52
79285;BME280;68734;50.452;11.636;2024-01-25T05:33:18;96303.34;;;4.04;70.37
79285;BME280;68734;50.452;11.636;2024-01-25T05:35:43;96312.41;;;4.10;70.47
79285;BME280;68734;50.452;11.636;2024-01-25T05:38:08;96316.09;;;4.02;71.02
79285;BME280;68734;50.452;11.636;2024-01-25T05:40:34;96328.66;;;4.08;71.28
79285;BME280;68734;50.452;11.636;2024-01-25T05:43:02;96346.56;;;4.14;71.09
79285;BME280;68734;50.452;11.636;2024-01-25T05:45:30;96351.28;;;4.06;71.77
79285;BME280;68734;50.452;11.636;2024-01-25T05:47:56;96359.50;;;4.04;71.84
79285;BME280;68734;50.452;11.636;2024-01-25T05:50:21;96363.84;;;4.12;71.49
79285;BME280;68734;50.452;11.636;2024-01-25T05:52:47;96372.47;;;4.07;71.99
79285;BME280;68734;50.452;11.636;2024-01-25T05:55:12;96362.16;;;4.04;71.24
79285;BME280;68734;50.452;11.636;2024-01-25T05:57:41;96367.50;;;4.04;70.28
79285;BME280;68734;50.452;11.636;2024-01-25T06:00:07;96358.88;;;4.02;68.30
79285;BME280;68734;50.452;11.636;2024-01-25T06:02:33;96385.59;;;4.02;67.26
79285;BME280;68734;50.452;11.636;2024-01-25T06:05:01;96375.53;;;4.04;66.24
79285;BME280;68734;50.452;11.636;2024-01-25T06:07:27;96370.81;;;4.06;64.85
79285;BME280;68734;50.452;11.636;2024-01-25T06:09:53;96395.72;;;4.13;65.70
79285;BME280;68734;50.452;11.636;2024-01-25T06:12:18;96389.31;;;4.01;66.36
79285;BME280;68734;50.452;11.636;2024-01-25T06:14:44;96395.44;;;3.95;65.26
79285;BME280;68734;50.452;11.636;2024-01-25T06:17:10;96389.44;;;3.93;65.57
79285;BME280;68734;50.452;11.636;2024-01-25T06:19:35;96391.28;;;3.86;65.68
79285;BME280;68734;50.452;11.636;2024-01-25T06:22:01;96378.38;;;3.96;63.94
79285;BME280;68734;50.452;11.636;2024-01-25T06:24:26;96395.03;;;3.98;63.55
79285;BME280;68734;50.452;11.636;2024-01-25T06:26:55;96381.44;;;3.93;63.87
79285;BME280;68734;50.452;11.636;2024-01-25T06:29:23;96385.16;;;3.98;63.51
79285;BME280;68734;50.452;11.636;2024-01-25T06:31:48;96393.81;;;4.00;64.02
79285;BME280;68734;50.452;11.636;2024-01-25T06:34:13;96399.56;;;3.97;65.03
79285;BME280;68734;50.452;11.636;2024-01-25T06:36:39;96397.09;;;3.96;65.63
79285;BME280;68734;50.452;11.636;2024-01-25T06:39:04;96405.72;;;3.98;65.86
79285;BME280;68734;50.452;11.636;2024-01-25T06:41:30;96413.13;;;3.96;66.30
79285;BME280;68734;50.452;11.636;2024-01-25T06:43:56;96425.03;;;3.93;66.33
79285;BME280;68734;50.452;11.636;2024-01-25T06:46:21;96418.84;;;3.93;66.70
79285;BME280;68734;50.452;11.636;2024-01-25T06:48:47;96421.53;;;3.93;65.54
79285;BME280;68734;50.452;11.636;2024-01-25T06:51:12;96409.81;;;3.94;65.12
79285;BME280;68734;50.452;11.636;2024-01-25T06:53:39;96426.31;;;3.97;64.52
79285;BME280;68734;50.452;11.636;2024-01-25T06:56:05;96411.88;;;3.92;64.72
79285;BME280;68734;50.452;11.636;2024-01-25T06:58:30;96422.19;;;3.95;64.93
79285;BME280;68734;50.452;11.636;2024-01-25T07:00:56;96427.53;;;3.95;64.11
79285;BME280;68734;50.452;11.636;2024-01-25T07:03:21;96428.78;;;3.99;64.74
79285;BME280;68734;50.452;11.636;2024-01-25T07:05:47;96415.41;;;3.99;63.97
79285;BME280;68734;50.452;11.636;2024-01-25T07:08:12;96426.72;;;4.01;64.11
79285;BME280;68734;50.452;11.636;2024-01-25T07:10:41;96421.75;;;3.91;64.42
79285;BME280;68734;50.452;11.636;2024-01-25T07:13:07;96430.38;;;3.93;65.02
79285;BME280;68734;50.452;11.636;2024-01-25T07:15:32;96431.22;;;3.94;64.37
79285;BME280;68734;50.452;11.636;2024-01-25T07:18:00;96429.94;;;3.90;64.99
79285;BME280;68734;50.452;11.636;2024-01-25T07:20:26;96436.56;;;3.94;64.70
79285;BME280;68734;50.452;11.636;2024-01-25T07:22:51;96441.91;;;3.94;65.31
79285;BME280;68734;50.452;11.636;2024-01-25T07:25:19;96449.72;;;3.95;65.11
79285;BME280;68734;50.452;11.636;2024-01-25T07:27:45;96431.59;;;3.91;65.43
79285;BME280;68734;50.452;11.636;2024-01-25T07:30:11;96433.63;;;3.89;65.44
79285;BME280;68734;50.452;11.636;2024-01-25T07:32:37;96442.53;;;3.96;65.75
79285;BME280;68734;50.452;11.636;2024-01-25T07:35:04;96448.91;;;3.95;65.71
79285;BME280;68734;50.452;11.636;2024-01-25T07:37:30;96441.09;;;4.00;65.63
79285;BME280;68734;50.452;11.636;2024-01-25T07:39:56;96446.88;;;3.97;65.95
79285;BME280;68734;50.452;11.636;2024-01-25T07:42:21;96444.19;;;3.97;65.67
79285;BME280;68734;50.452;11.636;2024-01-25T07:44:46;96438.41;;;3.93;66.47
79285;BME280;68734;50.452;11.636;2024-01-25T07:47:12;96438.22;;;3.95;66.34
79285;BME280;68734;50.452;11.636;2024-01-25T07:49:40;96443.31;;;3.90;66.79
79285;BME280;68734;50.452;11.636;2024-01-25T07:52:05;96451.78;;;3.93;66.78
79285;BME280;68734;50.452;11.636;2024-01-25T07:54:31;96462.28;;;3.95;66.67
79285;BME280;68734;50.452;11.636;2024-01-25T07:56:59;96467.84;;;4.00;65.97
79285;BME280;68734;50.452;11.636;2024-01-25T07:59:24;96465.00;;;4.08;65.33
79285;BME280;68734;50.452;11.636;2024-01-25T08:01:50;96462.97;;;4.10;65.48
79285;BME280;68734;50.452;11.636;2024-01-25T08:04:15;96465.00;;;4.08;65.40
79285;BME280;68734;50.452;11.636;2024-01-25T08:06:41;96463.38;;;4.07;64.61
79285;BME280;68734;50.452;11.636;2024-01-25T08:09:06;96480.25;;;4.14;65.20
79285;BME280;68734;50.452;11.636;2024-01-25T08:11:34;96476.72;;;4.07;65.14
79285;BME280;68734;50.452;11.636;2024-01-25T08:13:59;96484.34;;;4.10;65.28
79285;BME280;68734;50.452;11.636;2024-01-25T08:16:25;96485.59;;;4.14;65.29
79285;BME280;68734;50.452;11.636;2024-01-25T08:18:50;96472.22;;;4.14;65.60
79285;BME280;68734;50.452;11.636;2024-01-25T08:21:15;96483.13;;;4.13;65.99
79285;BME280;68734;50.452;11.636;2024-01-25T08:23:41;96484.41;;;4.17;65.85
79285;BME280;68734;50.452;11.636;2024-01-25T08:26:07;96489.19;;;4.28;65.50
79285;BME280;68734;50.452;11.636;2024-01-25T08:28:35;96497.56;;;4.18;65.25
79285;BME280;68734;50.452;11.636;2024-01-25T08:31:01;96498.81;;;4.23;65.04
79285;BME280;68734;50.452;11.636;2024-01-25T08:33:27;96492.66;;;4.29;64.94
79285;BME280;68734;50.452;11.636;2024-01-25T08:35:53;96487.94;;;4.31;64.86
79285;BME280;68734;50.452;11.636;2024-01-25T08:38:18;96478.91;;;4.32;64.54
79285;BME280;68734;50.452;11.636;2024-01-25T08:40:43;96492.66;;;4.29;64.75
79285;BME280;68734;50.452;11.636;2024-01-25T08:43:09;96479.69;;;4.19;65.37
79285;BME280;68734;50.452;11.636;2024-01-25T08:45:34;96488.16;;;4.29;64.80
79285;BME280;68734;50.452;11.636;2024-01-25T08:48:00;96501.31;;;4.31;65.71
79285;BME280;68734;50.452;11.636;2024-01-25T08:50:25;96497.22;;;4.35;65.22
79285;BME280;68734;50.452;11.636;2024-01-25T08:52:51;96490.69;;;4.37;64.23
79285;BME280;68734;50.452;11.636;2024-01-25T08:55:17;96494.41;;;4.43;64.98
79285;BME280;68734;50.452;11.636;2024-01-25T08:57:42;96497.72;;;4.45;64.73
79285;BME280;68734;50.452;11.636;2024-01-25T09:00:13;96517.44;;;4.44;65.34
79285;BME280;68734;50.452;11.636;2024-01-25T09:02:40;96514.59;;;4.46;64.39
79285;BME280;68734;50.452;11.636;2024-01-25T09:05:06;96516.22;;;4.47;64.82
79285;BME280;68734;50.452;11.636;2024-01-25T09:07:32;96528.41;;;4.56;64.24
79285;BME280;68734;50.452;11.636;2024-01-25T09:10:00;96524.50;;;4.58;65.02
79285;BME280;68734;50.452;11.636;2024-01-25T09:12:25;96512.59;;;4.61;64.62
79285;BME280;68734;50.452;11.636;2024-01-25T09:14:53;96527.44;;;4.64;64.59
79285;BME280;68734;50.452;11.636;2024-01-25T09:17:22;96524.16;;;4.75;64.32
79285;BME280;68734;50.452;11.636;2024-01-25T09:19:51;96527.28;;;4.78;63.44
79285;BME280;68734;50.452;11.636;2024-01-25T09:22:17;96524.56;;;4.72;63.16
79285;BME280;68734;50.452;11.636;2024-01-25T09:24:45;96530.38;;;4.82;63.68
79285;BME280;68734;50.452;11.636;2024-01-25T09:27:11;96529.75;;;4.80;63.61
79285;BME280;68734;50.452;11.636;2024-01-25T09:29:38;96517.56;;;4.71;62.79
79285;BME280;68734;50.452;11.636;2024-01-25T09:32:04;96531.97;;;4.70;63.40
79285;BME280;68734;50.452;11.636;2024-01-25T09:34:30;96531.19;;;4.76;63.56
79285;BME280;68734;50.452;11.636;2024-01-25T09:36:55;96522.16;;;4.90;64.12
79285;BME280;68734;50.452;11.636;2024-01-25T09:39:21;96532.50;;;5.07;63.38
79285;BME280;68734;50.452;11.636;2024-01-25T09:41:46;96537.03;;;4.99;62.74
79285;BME280;68734;50.452;11.636;2024-01-25T09:44:12;96528.78;;;5.01;63.07
79285;BME280;68734;50.452;11.636;2024-01-25T09:46:38;96539.09;;;4.97;62.51
79285;BME280;68734;50.452;11.636;2024-01-25T09:49:05;96541.09;;;4.89;62.88
79285;BME280;68734;50.452;11.636;2024-01-25T09:51:37;96540.09;;;4.90;63.32
79285;BME280;68734;50.452;11.636;2024-01-25T09:54:04;96549.38;;;5.00;62.30
79285;BME280;68734;50.452;11.636;2024-01-25T09:56:32;96552.50;;;5.11;62.45
79285;BME280;68734;50.452;11.636;2024-01-25T09:58:58;96541.59;;;5.06;62.58
79285;BME280;68734;50.452;11.636;2024-01-25T10:01:27;96549.00;;;5.10;62.72
79285;BME280;68734;50.452;11.636;2024-01-25T10:03:52;96552.88;;;4.94;62.52
79285;BME280;68734;50.452;11.636;2024-01-25T10:06:18;96562.94;;;4.92;62.28
79285;BME280;68734;50.452;11.636;2024-01-25T10:08:44;96560.91;;;4.94;63.10
79285;BME280;68734;50.452;11.636;2024-01-25T10:11:10;96561.94;;;4.93;63.06
79285;BME280;68734;50.452;11.636;2024-01-25T10:13:48;96566.31;;;5.14;61.75
79285;BME280;68734;50.452;11.636;2024-01-25T10:16:17;96539.09;;;5.11;61.87
79285;BME280;68734;50.452;11.636;2024-01-25T10:18:45;96555.53;;;4.94;63.02
79285;BME280;68734;50.452;11.636;2024-01-25T10:21:11;96550.25;;;5.08;62.51
79285;BME280;68734;50.452;11.636;2024-01-25T10:23:40;96543.59;;;4.90;62.97
79285;BME280;68734;50.452;11.636;2024-01-25T10:26:07;96555.97;;;4.91;62.32
79285;BME280;68734;50.452;11.636;2024-01-25T10:28:33;96550.59;;;4.91;62.45
79285;BME280;68734;50.452;11.636;2024-01-25T10:31:02;96556.78;;;4.98;62.26
79285;BME280;68734;50.452;11.636;2024-01-25T10:33:30;96544.84;;;4.94;62.98
79285;BME280;68734;50.452;11.636;2024-01-25T10:35:56;96545.47;;;4.96;62.75
79285;BME280;68734;50.452;11.636;2024-01-25T10:38:30;96550.41;;;4.99;62.80
79285;BME280;68734;50.452;11.636;2024-01-25T10:40:59;96554.38;;;5.17;63.05
79285;BME280;68734;50.452;11.636;2024-01-25T10:43:25;96550.28;;;5.28;62.06
79285;BME280;68734;50.452;11.636;2024-01-25T10:45:51;96540.81;;;5.25;61.41
79285;BME280;68734;50.452;11.636;2024-01-25T10:48:21;96535.03;;;5.35;61.49
79285;BME280;68734;50.452;11.636;2024-01-25T10:50:50;96550.34;;;5.48;62.30
79285;BME280;68734;50.452;11.636;2024-01-25T10:53:16;96550.31;;;5.61;61.32
79285;BME280;68734;50.452;11.636;2024-01-25T10:55:42;96543.97;;;5.75;60.77
79285;BME280;68734;50.452;11.636;2024-01-25T10:58:08;96550.81;;;5.98;60.28
79285;BME280;68734;50.452;11.636;2024-01-25T11:00:36;96554.09;;;6.13;59.71
79285;BME280;68734;50.452;11.636;2024-01-25T11:03:02;96558.03;;;6.17;61.12
79285;BME280;68734;50.452;11.636;2024-01-25T11:05:31;96546.25;;;6.05;59.45
79285;BME280;68734;50.452;11.636;2024-01-25T11:07:57;96538.41;;;5.97;60.59
79285;BME280;68734;50.452;11.636;2024-01-25T11:10:25;96536.34;;;5.99;61.51
79285;BME280;68734;50.452;11.636;2024-01-25T11:13:01;96530.59;;;6.02;61.38
79285;BME280;68734;50.452;11.636;2024-01-25T11:15:36;96530.59;;;6.02;60.65
79285;BME280;68734;50.452;11.636;2024-01-25T11:18:04;96533.44;;;6.07;60.31
79285;BME280;68734;50.452;11.636;2024-01-25T11:20:33;96543.75;;;5.70;61.40
79285;BME280;68734;50.452;11.636;2024-01-25T11:23:02;96543.75;;;5.70;61.27
79285;BME280;68734;50.452;11.636;2024-01-25T11:25:35;96529.13;;;5.79;62.20
79285;BME280;68734;50.452;11.636;2024-01-25T11:28:03;96537.34;;;5.85;61.90
79285;BME280;68734;50.452;11.636;2024-01-25T11:30:32;96531.59;;;5.74;60.61
79285;BME280;68734;50.452;11.636;2024-01-25T11:32:58;96538.63;;;5.75;60.98
79285;BME280;68734;50.452;11.636;2024-01-25T11:35:23;96540.47;;;5.82;61.07
79285;BME280;68734;50.452;11.636;2024-01-25T11:37:50;96540.84;;;5.85;60.53
79285;BME280;68734;50.452;11.636;2024-01-25T11:40:19;96537.56;;;5.83;61.01
79285;BME280;68734;50.452;11.636;2024-01-25T11:42:48;96532.44;;;5.95;61.71
79285;BME280;68734;50.452;11.636;2024-01-25T11:45:14;96538.41;;;5.97;60.87
79285;BME280;68734;50.452;11.636;2024-01-25T11:47:41;96535.94;;;6.02;60.64
79285;BME280;68734;50.452;11.636;2024-01-25T11:50:08;96527.91;;;6.02;60.20
79285;BME280;68734;50.452;11.636;2024-01-25T11:52:34;96520.25;;;5.92;60.97
79285;BME280;68734;50.452;11.636;2024-01-25T11:55:08;96530.59;;;6.02;60.83
79285;BME280;68734;50.452;11.636;2024-01-25T11:57:39;96522.31;;;5.97;60.67
79285;BME280;68734;50.452;11.636;2024-01-25T12:00:09;96531.78;;;6.13;61.23
79285;BME280;68734;50.452;11.636;2024-01-25T12:02:36;96530.56;;;6.22;61.13
79285;BME280;68734;50.452;11.636;2024-01-25T12:05:03;96538.78;;;6.34;59.68
79285;BME280;68734;50.452;11.636;2024-01-25T12:07:32;96529.69;;;6.35;59.82
79285;BME280;68734;50.452;11.636;2024-01-25T12:10:06;96543.72;;;6.37;60.53
79285;BME280;68734;50.452;11.636;2024-01-25T12:12:36;96535.91;;;6.29;60.11
79285;BME280;68734;50.452;11.636;2024-01-25T12:15:05;96542.94;;;6.30;59.71
79285;BME280;68734;50.452;11.636;2024-01-25T12:17:33;96539.19;;;6.31;60.12
79285;BME280;68734;50.452;11.636;2024-01-25T12:20:02;96545.19;;;6.33;60.48
79285;BME280;68734;50.452;11.636;2024-01-25T12:22:29;96554.47;;;6.44;59.86
79285;BME280;68734;50.452;11.636;2024-01-25T12:24:58;96537.94;;;6.40;60.51
79285;BME280;68734;50.452;11.636;2024-01-25T12:27:25;96535.72;;;6.24;59.71
79285;BME280;68734;50.452;11.636;2024-01-25T12:30:06;96529.94;;;6.07;59.67
79285;BME280;68734;50.452;11.636;2024-01-25T12:32:33;96523.75;;;5.93;59.12
79285;BME280;68734;50.452;11.636;2024-01-25T12:35:00;96539.44;;;5.76;59.45
79285;BME280;68734;50.452;11.636;2024-01-25T12:37:26;96531.59;;;5.68;60.34
79285;BME280;68734;50.452;11.636;2024-01-25T12:39:53;96538.78;;;5.67;61.38
79285;BME280;68734;50.452;11.636;2024-01-25T12:42:22;96527.44;;;5.65;62.19
79285;BME280;68734;50.452;11.636;2024-01-25T12:44:52;96525.38;;;5.67;60.93
79285;BME280;68734;50.452;11.636;2024-01-25T12:47:18;96527.28;;;5.73;61.88
79285;BME280;68734;50.452;11.636;2024-01-25T12:49:43;96540.06;;;5.71;62.37
79285;BME280;68734;50.452;11.636;2024-01-25T12:52:13;96525.59;;;5.72;62.30
79285;BME280;68734;50.452;11.636;2024-01-25T12:54:39;96529.13;;;5.79;62.61
79285;BME280;68734;50.452;11.636;2024-01-25T12:57:05;96529.53;;;5.76;61.48